Time;durP1;ratioP1;P1;durP2;ratioP2;P2;SDS_P1;SDS_P2;PMS_P1;PMS_P2;Temp;Humidity;BMP_temperature;BMP_pressure;BME280_temperature;BME280_humidity;BME280_pressure;Samples;Min_cycle;Max_cycle;Signal;HPM_P1;HPM_P2
2023/08/03 00:00:04;;;;;;;4.80;1.40;;;16.00;99.90;;;;;;5069220;28;20473;-52
2023/08/03 00:02:34;;;;;;;2.53;1.50;;;15.90;99.90;;;;;;5070355;28;20098;-53
2023/08/03 00:05:03;;;;;;;;;;;15.90;99.90;;;;;;5070914;28;20017;-54
2023/08/03 00:07:28;;;;;;;3.05;1.38;;;15.90;99.90;;;;;;5070103;28;19909;-51
2023/08/03 00:09:54;;;;;;;1.98;1.10;;;15.90;99.90;;;;;;5070158;28;20039;-53
2023/08/03 00:12:20;;;;;;;4.00;1.15;;;16.00;99.90;;;;;;5070217;28;20047;-50
2023/08/03 00:14:45;;;;;;;4.32;1.45;;;16.00;99.90;;;;;;5070186;28;20026;-50
2023/08/03 00:17:11;;;;;;;4.80;1.42;;;15.90;99.90;;;;;;5070266;28;20051;-53
2023/08/03 00:19:36;;;;;;;3.15;1.33;;;15.90;99.90;;;;;;5068767;28;20107;-54
2023/08/03 00:22:02;;;;;;;5.22;1.50;;;15.90;99.90;;;;;;5070279;28;20108;-52
2023/08/03 00:24:28;;;;;;;2.35;1.27;;;15.90;99.90;;;;;;5070053;28;20473;-50
2023/08/03 00:26:53;;;;;;;3.75;1.60;;;15.90;99.90;;;;;;5070074;28;20017;-48
2023/08/03 00:29:19;;;;;;;3.58;1.55;;;15.90;99.90;;;;;;5069995;28;20107;-54
2023/08/03 00:31:44;;;;;;;3.90;1.33;;;15.90;99.90;;;;;;5070105;28;20031;-52
2023/08/03 00:34:10;;;;;;;3.97;1.50;;;16.00;99.90;;;;;;5070013;28;20087;-49
2023/08/03 00:36:35;;;;;;;2.63;1.50;;;16.00;99.90;;;;;;5070336;28;20044;-53
2023/08/03 00:39:01;;;;;;;3.75;1.17;;;16.00;99.90;;;;;;5069816;28;20469;-49
2023/08/03 00:41:27;;;;;;;3.75;1.40;;;16.00;99.90;;;;;;5069763;28;20338;-51
2023/08/03 00:43:53;;;;;;;3.08;1.40;;;16.00;99.90;;;;;;5069827;28;20066;-50
2023/08/03 00:46:19;;;;;;;2.63;1.40;;;16.00;99.90;;;;;;5070031;28;20021;-47
2023/08/03 00:48:44;;;;;;;1.67;1.17;;;16.00;99.90;;;;;;5070275;28;20055;-50
2023/08/03 00:51:11;;;;;;;3.30;1.30;;;16.00;99.90;;;;;;5055928;28;20033;-50
2023/08/03 00:53:37;;;;;;;2.67;1.40;;;16.00;99.90;;;;;;5069878;28;20032;-48
2023/08/03 00:56:03;;;;;;;4.18;1.70;;;16.10;99.90;;;;;;5069748;28;20028;-48
2023/08/03 00:58:28;;;;;;;5.45;1.40;;;16.00;99.90;;;;;;5069845;28;20035;-55
2023/08/03 01:00:54;;;;;;;2.67;1.35;;;16.00;99.90;;;;;;5069910;28;20043;-47
2023/08/03 01:03:20;;;;;;;2.13;1.33;;;16.00;99.90;;;;;;5069884;28;20029;-49
2023/08/03 01:05:46;;;;;;;4.13;1.50;;;16.00;99.90;;;;;;5069706;28;20017;-48
2023/08/03 01:08:11;;;;;;;3.13;1.33;;;16.00;99.90;;;;;;5069617;28;20028;-48
2023/08/03 01:10:37;;;;;;;3.22;1.40;;;16.10;99.90;;;;;;5069837;28;20086;-54
2023/08/03 01:13:03;;;;;;;4.45;1.50;;;16.10;99.90;;;;;;5069591;28;20021;-48
2023/08/03 01:15:28;;;;;;;3.40;1.20;;;16.00;99.90;;;;;;5069687;28;20102;-50
2023/08/03 01:17:54;;;;;;;3.83;1.48;;;16.10;99.90;;;;;;5069546;28;20040;-47
2023/08/03 01:20:21;;;;;;;2.20;1.35;;;16.00;99.90;;;;;;5072682;28;20025;-49
2023/08/03 01:22:47;;;;;;;3.75;1.73;;;16.00;99.90;;;;;;5073244;28;20055;-54
2023/08/03 01:25:13;;;;;;;3.17;1.52;;;16.00;99.90;;;;;;5073398;28;20354;-53
2023/08/03 01:27:39;;;;;;;3.83;1.27;;;16.00;99.90;;;;;;5073227;28;20495;-48
2023/08/03 01:30:05;;;;;;;2.78;1.40;;;16.00;99.90;;;;;;5073008;28;20032;-47
2023/08/03 01:32:31;;;;;;;7.75;1.33;;;16.00;99.90;;;;;;5073433;28;20485;-51
2023/08/03 01:34:57;;;;;;;3.25;1.40;;;16.00;99.90;;;;;;5073038;28;20053;-50
2023/08/03 01:37:26;;;;;;;4.95;1.52;;;16.00;99.90;;;;;;5072907;28;20038;-53
2023/08/03 01:39:51;;;;;;;4.05;1.75;;;16.00;99.90;;;;;;5073106;28;20108;-51
2023/08/03 01:42:17;;;;;;;3.75;1.48;;;16.00;99.90;;;;;;5072819;28;20116;-50
2023/08/03 01:44:43;;;;;;;3.05;1.35;;;15.90;99.90;;;;;;5073127;28;20070;-51
2023/08/03 01:47:09;;;;;;;7.30;1.70;;;16.00;99.90;;;;;;5072875;28;20164;-49
2023/08/03 01:49:35;;;;;;;2.00;1.23;;;16.00;99.90;;;;;;5072690;28;20086;-48
2023/08/03 01:52:01;;;;;;;3.30;1.38;;;16.00;99.90;;;;;;5072803;28;20028;-57
2023/08/03 01:54:26;;;;;;;4.95;1.60;;;16.00;99.90;;;;;;5072400;28;20050;-48
2023/08/03 01:56:53;;;;;;;2.95;1.38;;;16.00;99.90;;;;;;5072723;28;20419;-51
2023/08/03 01:59:18;;;;;;;4.82;1.38;;;16.00;99.90;;;;;;5070934;28;20078;-53
2023/08/03 02:01:44;;;;;;;3.75;1.73;;;15.90;99.90;;;;;;5072782;28;20430;-51
2023/08/03 02:04:10;;;;;;;2.05;1.25;;;15.90;99.90;;;;;;5072638;28;20032;-55
2023/08/03 02:06:38;;;;;;;3.20;1.42;;;15.90;99.90;;;;;;5072584;28;20017;-51
2023/08/03 02:09:04;;;;;;;3.33;1.30;;;15.90;99.90;;;;;;5072146;28;20036;-53
2023/08/03 02:11:30;;;;;;;2.08;1.48;;;16.00;99.90;;;;;;5072641;28;20016;-48
2023/08/03 02:13:55;;;;;;;4.60;1.30;;;16.00;99.90;;;;;;5072596;28;20181;-49
2023/08/03 02:16:21;;;;;;;4.07;1.80;;;15.90;99.90;;;;;;5072513;28;20017;-54
2023/08/03 02:18:47;;;;;;;3.78;1.42;;;16.00;99.90;;;;;;5072642;28;20031;-51
2023/08/03 02:21:12;;;;;;;2.17;1.23;;;15.90;99.90;;;;;;5072387;28;20033;-54
2023/08/03 02:23:38;;;;;;;3.00;1.13;;;16.00;99.90;;;;;;5072180;28;20028;-52
2023/08/03 02:26:03;;;;;;;3.25;1.35;;;16.00;99.90;;;;;;5072082;28;20048;-56
2023/08/03 02:28:32;;;;;;;3.25;1.40;;;16.00;99.90;;;;;;5071143;28;20119;-50
2023/08/03 02:30:58;;;;;;;2.60;1.45;;;16.00;99.90;;;;;;5070843;28;20032;-53
2023/08/03 02:33:24;;;;;;;2.75;1.38;;;16.00;99.90;;;;;;5072081;28;20055;-48
2023/08/03 02:35:50;;;;;;;4.50;1.60;;;16.00;99.90;;;;;;5072471;28;20151;-53
2023/08/03 02:38:16;;;;;;;3.47;2.00;;;16.00;99.90;;;;;;5071840;28;20060;-52
2023/08/03 02:40:41;;;;;;;1.70;1.00;;;16.00;99.90;;;;;;5071942;28;20094;-51
2023/08/03 02:43:07;;;;;;;2.22;1.38;;;16.00;99.90;;;;;;5072247;28;20028;-48
2023/08/03 02:45:33;;;;;;;2.35;1.20;;;16.00;99.90;;;;;;5072010;28;20385;-48
2023/08/03 02:47:58;;;;;;;1.88;1.20;;;16.00;99.90;;;;;;5072016;28;20028;-49
2023/08/03 02:50:24;;;;;;;2.28;1.23;;;16.00;99.90;;;;;;5071779;28;20451;-53
2023/08/03 02:52:49;;;;;;;2.80;1.20;;;16.00;99.90;;;;;;5071577;28;20099;-57
2023/08/03 02:55:16;;;;;;;1.90;1.13;;;16.00;99.90;;;;;;5071836;28;20028;-51
2023/08/03 02:57:42;;;;;;;1.30;0.90;;;16.00;99.90;;;;;;5071741;28;20450;-54
2023/08/03 03:00:09;;;;;;;2.17;0.95;;;16.00;99.90;;;;;;5071782;28;20052;-49
2023/08/03 03:02:36;;;;;;;1.52;0.80;;;16.00;99.90;;;;;;5071365;28;20039;-51
2023/08/03 03:05:02;;;;;;;2.15;0.70;;;16.00;99.90;;;;;;5071700;28;20567;-53
2023/08/03 03:07:27;;;;;;;3.20;1.00;;;16.00;99.90;;;;;;5069750;28;20047;-50
2023/08/03 03:09:53;;;;;;;2.97;1.00;;;15.90;99.90;;;;;;5071595;28;20473;-53
2023/08/03 03:12:18;;;;;;;1.10;0.90;;;15.90;99.90;;;;;;5071360;28;20481;-47
2023/08/03 03:14:44;;;;;;;1.92;0.88;;;15.90;99.90;;;;;;5071265;28;20028;-51
2023/08/03 03:17:09;;;;;;;3.13;1.20;;;15.90;99.90;;;;;;5071436;28;20024;-52
2023/08/03 03:19:35;;;;;;;1.33;0.90;;;15.80;99.90;;;;;;5071105;28;20111;-52
2023/08/03 03:22:01;;;;;;;3.15;0.98;;;15.80;99.90;;;;;;5071276;28;20020;-55
2023/08/03 03:24:26;;;;;;;1.30;0.90;;;15.80;99.90;;;;;;5070837;28;20020;-53
2023/08/03 03:26:52;;;;;;;1.40;0.88;;;15.80;99.90;;;;;;5071437;28;20096;-52
2023/08/03 03:29:17;;;;;;;1.33;0.85;;;15.80;99.90;;;;;;5071175;28;20041;-52
2023/08/03 03:31:43;;;;;;;1.65;1.00;;;15.80;99.90;;;;;;5070962;28;20021;-48
2023/08/03 03:34:09;;;;;;;1.60;1.00;;;15.80;99.90;;;;;;5069627;28;20055;-54
2023/08/03 03:36:34;;;;;;;2.97;1.20;;;15.80;99.90;;;;;;5070528;28;20018;-48
2023/08/03 03:39:00;;;;;;;2.63;1.33;;;15.80;99.90;;;;;;5070834;28;20029;-55
2023/08/03 03:41:25;;;;;;;2.17;1.30;;;15.80;99.90;;;;;;5070695;28;20051;-49
2023/08/03 03:43:51;;;;;;;2.13;1.00;;;15.80;99.90;;;;;;5070413;28;20028;-53
2023/08/03 03:46:16;;;;;;;2.05;1.20;;;15.80;99.90;;;;;;5070653;28;20021;-50
2023/08/03 03:48:42;;;;;;;3.22;1.58;;;15.80;99.90;;;;;;5070647;28;20346;-47
2023/08/03 03:51:08;;;;;;;8.50;1.73;;;15.80;99.90;;;;;;5069123;28;20020;-50
2023/08/03 03:53:33;;;;;;;2.40;1.40;;;15.80;99.90;;;;;;5070527;28;20497;-53
2023/08/03 03:55:59;;;;;;;2.65;1.65;;;15.80;99.90;;;;;;5070671;28;20044;-48
2023/08/03 03:58:24;;;;;;;2.83;1.42;;;15.80;99.90;;;;;;5070441;28;20107;-58
2023/08/03 04:00:50;;;;;;;2.22;1.38;;;15.80;99.90;;;;;;5070493;28;20032;-51
2023/08/03 04:03:15;;;;;;;2.03;1.45;;;15.80;99.90;;;;;;5070409;28;20054;-55
2023/08/03 04:05:41;;;;;;;3.97;1.40;;;15.80;99.90;;;;;;5070252;28;20036;-54
2023/08/03 04:08:07;;;;;;;2.20;1.33;;;15.80;99.90;;;;;;5070107;28;20024;-48
2023/08/03 04:10:35;;;;;;;2.15;1.42;;;15.80;99.90;;;;;;5070082;28;20101;-48
2023/08/03 04:13:00;;;;;;;2.95;1.40;;;15.70;99.90;;;;;;5070401;28;20448;-52
2023/08/03 04:15:26;;;;;;;3.58;1.85;;;15.70;99.90;;;;;;5070316;28;20032;-50
2023/08/03 04:17:51;;;;;;;4.68;1.73;;;15.70;99.90;;;;;;5070069;28;20035;-53
2023/08/03 04:20:17;;;;;;;3.00;1.77;;;15.70;99.90;;;;;;5070334;28;20035;-57
2023/08/03 04:22:43;;;;;;;2.63;1.40;;;15.70;99.90;;;;;;5069920;28;20017;-50
2023/08/03 04:25:09;;;;;;;2.85;1.50;;;15.70;99.90;;;;;;5070578;28;20025;-53
2023/08/03 04:27:35;;;;;;;3.33;1.63;;;15.70;99.90;;;;;;5070171;28;20027;-49
2023/08/03 04:30:01;;;;;;;4.50;1.40;;;15.70;99.90;;;;;;5068486;28;20036;-56
2023/08/03 04:32:27;;;;;;;3.85;1.50;;;15.60;99.90;;;;;;5070138;28;20040;-52
2023/08/03 04:34:52;;;;;;;2.35;1.20;;;15.60;99.90;;;;;;5069700;28;20045;-52
2023/08/03 04:37:18;;;;;;;5.15;1.58;;;15.60;99.90;;;;;;5070169;28;20119;-49
2023/08/03 04:39:43;;;;;;;2.42;1.42;;;15.60;99.90;;;;;;5069554;28;20469;-52
2023/08/03 04:42:09;;;;;;;3.45;1.80;;;15.60;99.90;;;;;;5069748;28;20024;-51
2023/08/03 04:44:35;;;;;;;4.05;1.70;;;15.60;99.90;;;;;;5069866;28;20385;-51
2023/08/03 04:47:00;;;;;;;5.60;1.75;;;15.60;99.90;;;;;;5069752;28;20392;-54
2023/08/03 04:49:26;;;;;;;3.25;1.70;;;15.60;99.90;;;;;;5069580;28;20106;-53
2023/08/03 04:51:52;;;;;;;2.50;1.52;;;15.60;99.90;;;;;;5069671;28;20025;-53
2023/08/03 04:54:18;;;;;;;9.15;1.77;;;15.60;99.90;;;;;;5069096;28;20031;-51
2023/08/03 04:56:44;;;;;;;6.00;1.33;;;15.60;99.90;;;;;;5069919;28;20021;-50
2023/08/03 04:59:09;;;;;;;5.80;1.85;;;15.60;99.90;;;;;;5069573;28;20021;-49
2023/08/03 05:01:35;;;;;;;2.60;1.48;;;15.70;99.90;;;;;;5069808;28;20028;-54
2023/08/03 05:04:00;;;;;;;4.88;1.65;;;15.70;99.90;;;;;;5069442;28;20047;-50
2023/08/03 05:06:27;;;;;;;2.63;1.35;;;15.70;99.90;;;;;;5069725;28;20052;-52
2023/08/03 05:08:52;;;;;;;5.97;1.80;;;15.70;99.90;;;;;;5069474;28;20076;-49
2023/08/03 05:11:18;;;;;;;4.25;1.42;;;15.70;99.90;;;;;;5069724;28;20055;-53
2023/08/03 05:13:43;;;;;;;2.78;1.65;;;15.80;99.90;;;;;;5069816;28;20025;-53
2023/08/03 05:16:09;;;;;;;2.40;1.48;;;15.80;99.90;;;;;;5069593;28;20023;-53
2023/08/03 05:18:35;;;;;;;3.72;1.35;;;15.80;99.90;;;;;;5068346;28;20507;-55
2023/08/03 05:21:00;;;;;;;3.88;1.50;;;15.80;99.90;;;;;;5069537;28;20474;-51
2023/08/03 05:23:26;;;;;;;3.75;1.48;;;15.80;99.90;;;;;;5069604;28;20103;-58
2023/08/03 05:25:56;;;;;;;1.92;1.30;;;15.80;99.90;;;;;;5069516;28;20052;-54
2023/08/03 05:28:22;;;;;;;3.13;1.40;;;15.90;99.90;;;;;;5069492;28;20029;-53
2023/08/03 05:30:48;;;;;;;4.65;1.52;;;16.00;99.90;;;;;;5069661;28;20035;-53
2023/08/03 05:33:14;;;;;;;3.42;1.70;;;16.00;99.90;;;;;;5069270;28;20045;-51
2023/08/03 05:35:40;;;;;;;3.60;1.60;;;16.10;99.90;;;;;;5069546;28;20048;-54
2023/08/03 05:38:06;;;;;;;2.90;1.55;;;16.10;99.90;;;;;;5069212;28;20021;-52
2023/08/03 05:40:32;;;;;;;2.80;1.35;;;16.10;99.90;;;;;;5069179;28;20547;-55
2023/08/03 05:42:58;;;;;;;4.47;2.20;;;16.20;99.90;;;;;;5069317;28;20333;-55
2023/08/03 05:45:39;;;;;;;4.97;2.25;;;16.20;99.90;;;;;;5069336;28;20111;-54
2023/08/03 05:48:12;;;;;;;3.78;1.50;;;16.30;99.90;;;;;;5069243;28;20029;-50
2023/08/03 05:50:40;;;;;;;3.00;1.50;;;16.30;99.90;;;;;;5069348;28;20530;-54
2023/08/03 05:53:09;;;;;;;2.33;1.42;;;16.40;99.90;;;;;;5069359;28;20048;-49
2023/08/03 05:55:35;;;;;;;2.25;1.42;;;16.50;99.90;;;;;;5069130;28;20063;-49
2023/08/03 05:58:01;;;;;;;2.40;1.35;;;16.70;99.90;;;;;;5069194;28;20052;-55
2023/08/03 06:00:29;;;;;;;4.85;1.40;;;17.00;99.90;;;;;;5068880;28;20028;-51
2023/08/03 06:02:58;;;;;;;8.50;1.45;;;17.40;99.90;;;;;;5068988;28;20377;-56
2023/08/03 06:05:42;;;;;;;7.13;1.42;;;18.00;99.90;;;;;;5070106;28;20056;-53
2023/08/03 06:08:21;;;;;;;5.63;1.50;;;18.60;99.90;;;;;;5072277;28;20067;-56
2023/08/03 06:10:50;;;;;;;1.55;1.10;;;19.20;99.90;;;;;;5072214;28;20036;-52
2023/08/03 06:13:18;;;;;;;5.40;1.20;;;19.60;99.90;;;;;;5072508;28;20024;-54
2023/08/03 06:15:45;;;;;;;3.35;1.10;;;20.10;99.90;;;;;;5072390;28;20512;-52
2023/08/03 06:18:14;;;;;;;2.03;0.82;;;20.60;99.90;;;;;;5072460;28;20062;-53
2023/08/03 06:20:46;;;;;;;2.60;1.10;;;20.90;99.90;;;;;;5072388;28;20026;-52
2023/08/03 06:23:24;;;;;;;1.05;0.80;;;20.80;99.90;;;;;;5072363;28;20039;-56
2023/08/03 06:25:51;;;;;;;4.73;1.03;;;20.90;99.90;;;;;;5067060;28;20508;-54
2023/08/03 06:28:19;;;;;;;2.30;0.75;;;20.90;99.90;;;;;;5072288;28;20258;-56
2023/08/03 06:30:47;;;;;;;1.27;0.73;;;20.70;99.90;;;;;;5065481;28;20044;-53
2023/08/03 06:33:17;;;;;;;2.03;0.80;;;20.60;99.90;;;;;;5071866;28;20072;-50
2023/08/03 06:35:45;;;;;;;4.35;1.00;;;20.30;99.90;;;;;;5070879;28;20028;-58
2023/08/03 06:38:21;;;;;;;0.82;0.70;;;20.40;99.90;;;;;;5072314;28;20032;-54
2023/08/03 06:40:48;;;;;;;3.53;0.95;;;20.50;99.90;;;;;;5072496;28;20389;-52
2023/08/03 06:43:14;;;;;;;3.65;0.95;;;20.40;99.90;;;;;;5071956;28;20017;-51
2023/08/03 06:45:41;;;;;;;2.85;0.88;;;20.10;99.90;;;;;;5058120;28;20025;-54
2023/08/03 06:48:08;;;;;;;2.60;0.90;;;20.40;99.90;;;;;;5072106;28;20029;-56
2023/08/03 06:50:33;;;;;;;3.40;0.88;;;20.80;99.90;;;;;;5072117;28;20405;-56
2023/08/03 06:53:01;;;;;;;5.05;2.03;;;21.40;99.90;;;;;;5072371;28;20073;-54
2023/08/03 06:55:27;;;;;;;3.65;0.95;;;22.10;99.90;;;;;;5072118;28;20028;-55
2023/08/03 06:57:53;;;;;;;2.30;1.00;;;22.80;99.90;;;;;;5072151;28;20032;-57
2023/08/03 07:00:18;;;;;;;1.75;0.80;;;23.10;99.90;;;;;;5071987;28;20492;-55
2023/08/03 07:02:45;;;;;;;1.00;0.70;;;23.20;99.90;;;;;;5072100;28;20024;-51
2023/08/03 07:05:11;;;;;;;2.00;0.73;;;23.60;99.90;;;;;;5072099;28;20111;-53
2023/08/03 07:07:37;;;;;;;1.52;0.70;;;23.70;99.90;;;;;;5071283;28;20020;-53
2023/08/03 07:10:03;;;;;;;2.03;0.75;;;23.60;99.90;;;;;;5071615;28;20445;-54
2023/08/03 07:12:29;;;;;;;1.45;0.80;;;23.50;99.90;;;;;;5071425;28;20124;-56
2023/08/03 07:14:55;;;;;;;2.33;0.60;;;23.50;99.90;;;;;;5071945;28;20024;-56
2023/08/03 07:17:21;;;;;;;1.55;0.77;;;23.90;99.90;;;;;;5070248;28;20020;-54
2023/08/03 07:19:51;;;;;;;3.45;0.80;;;24.20;99.90;;;;;;5072118;28;20108;-51
2023/08/03 07:22:23;;;;;;;1.95;0.77;;;24.80;99.90;;;;;;5071798;28;20093;-52
2023/08/03 07:24:49;;;;;;;1.45;0.55;;;25.50;99.90;;;;;;5058327;28;20035;-56
2023/08/03 07:27:16;;;;;;;1.65;0.70;;;26.10;99.90;;;;;;5071563;28;20020;-53
2023/08/03 07:29:42;;;;;;;1.27;0.65;;;26.40;99.90;;;;;;5071312;28;20039;-56
2023/08/03 07:32:09;;;;;;;1.98;0.70;;;26.70;99.90;;;;;;5071340;28;20028;-55
2023/08/03 07:34:34;;;;;;;1.25;0.65;;;26.90;99.90;;;;;;5071011;28;20056;-51
2023/08/03 07:37:01;;;;;;;2.72;0.60;;;26.80;99.90;;;;;;5070812;28;20361;-56
2023/08/03 07:39:27;;;;;;;1.05;0.60;;;26.70;99.90;;;;;;5070995;28;20071;-55
2023/08/03 07:41:53;;;;;;;1.85;0.88;;;27.00;99.90;;;;;;5071083;28;20063;-53
2023/08/03 07:44:20;;;;;;;2.65;0.60;;;26.90;99.90;;;;;;5070934;28;20139;-56
2023/08/03 07:46:46;;;;;;;1.50;1.17;;;26.20;99.90;;;;;;5070847;28;20104;-52
2023/08/03 07:49:12;;;;;;;2.63;0.70;;;25.30;99.90;;;;;;5071051;28;20547;-50
2023/08/03 07:51:38;;;;;;;4.20;0.82;;;24.10;99.90;;;;;;5058391;28;20659;-53
2023/08/03 07:54:04;;;;;;;6.40;1.23;;;23.10;99.90;;;;;;5069619;28;20039;-52
2023/08/03 07:56:30;;;;;;;1.80;0.85;;;22.50;99.90;;;;;;5068732;28;20021;-53
2023/08/03 07:58:56;;;;;;;2.35;0.90;;;22.80;99.90;;;;;;5070627;28;20024;-56
2023/08/03 08:01:22;;;;;;;3.30;0.85;;;23.30;99.90;;;;;;5063508;28;20021;-55
2023/08/03 08:03:48;;;;;;;1.25;1.00;;;24.10;99.90;;;;;;5060203;28;20413;-55
2023/08/03 08:06:16;;;;;;;1.38;0.75;;;24.80;99.90;;;;;;5070251;28;20028;-53
2023/08/03 08:08:42;;;;;;;0.87;0.63;;;25.50;99.90;;;;;;5070539;28;20049;-53
2023/08/03 08:11:08;;;;;;;2.05;0.70;;;26.10;99.90;;;;;;5069747;28;20032;-55
2023/08/03 08:13:34;;;;;;;2.00;1.17;;;26.40;99.90;;;;;;5070570;28;20115;-49
2023/08/03 08:16:01;;;;;;;9.38;1.33;;;26.70;99.90;;;;;;5070559;28;20119;-49
2023/08/03 08:18:27;;;;;;;2.15;0.77;;;26.80;99.90;;;;;;5070730;28;20048;-55
2023/08/03 08:21:19;;;;;;;1.77;0.60;;;27.40;99.90;;;;;;5070719;28;20036;-54
2023/08/03 08:23:45;;;;;;;1.67;0.63;;;27.50;99.90;;;;;;5067344;28;20043;-47
2023/08/03 08:26:16;;;;;;;3.42;0.85;;;27.60;99.90;;;;;;5069064;28;20386;-52
2023/08/03 08:28:43;;;;;;;3.35;0.90;;;27.70;99.90;;;;;;5069507;28;20032;-49
2023/08/03 08:31:10;;;;;;;1.13;0.70;;;27.50;99.90;;;;;;5068547;28;20032;-53
2023/08/03 08:33:36;;;;;;;1.38;0.60;;;27.00;99.90;;;;;;5068522;28;20043;-57
2023/08/03 08:36:03;;;;;;;2.83;0.75;;;26.60;99.90;;;;;;5068779;28;20550;-54
2023/08/03 08:38:30;;;;;;;1.20;0.75;;;25.90;99.90;;;;;;5068126;28;20064;-51
2023/08/03 08:40:55;;;;;;;3.15;0.82;;;25.60;99.90;;;;;;5051450;28;20394;-55
2023/08/03 08:43:21;;;;;;;1.50;0.80;;;25.40;99.90;;;;;;5064248;28;20031;-51
2023/08/03 08:45:47;;;;;;;0.73;0.55;;;25.30;99.90;;;;;;5070497;28;20490;-57
2023/08/03 08:48:12;;;;;;;2.20;0.77;;;25.10;99.90;;;;;;5060701;28;20041;-53
2023/08/03 08:50:38;;;;;;;2.20;0.90;;;24.70;99.90;;;;;;5067287;28;20500;-52
2023/08/03 08:53:04;;;;;;;3.22;0.70;;;24.50;99.90;;;;;;5068254;28;20021;-56
2023/08/03 08:55:31;;;;;;;1.63;0.70;;;24.00;99.90;;;;;;5067972;28;20017;-50
2023/08/03 08:57:58;;;;;;;4.40;1.10;;;24.30;99.90;;;;;;5068484;28;20027;-51
2023/08/03 09:00:25;;;;;;;3.85;0.98;;;24.20;99.90;;;;;;5068282;28;20098;-51
2023/08/03 09:02:56;;;;;;;5.20;0.90;;;24.30;99.90;;;;;;5068670;28;20127;-54
2023/08/03 09:05:24;;;;;;;3.25;0.80;;;24.30;99.90;;;;;;5058057;28;20036;-50
2023/08/03 09:08:01;;;;;;;1.80;0.93;;;24.70;99.90;;;;;;5059313;28;20028;-53
2023/08/03 09:10:26;;;;;;;1.13;0.73;;;25.20;99.90;;;;;;5069988;28;20036;-50
2023/08/03 09:12:52;;;;;;;0.80;0.57;;;26.00;99.90;;;;;;5067719;28;20043;-58
2023/08/03 09:15:18;;;;;;;1.77;0.80;;;26.30;99.90;;;;;;5068071;28;20020;-52
2023/08/03 09:17:47;;;;;;;3.20;0.82;;;27.00;99.90;;;;;;5066387;28;20074;-53
2023/08/03 09:20:32;;;;;;;;;;;27.50;99.90;;;;;;5066626;28;20035;-55
2023/08/03 09:22:59;;;;;;;0.73;0.60;;;27.30;99.90;;;;;;5068610;28;20295;-53
2023/08/03 09:25:24;;;;;;;0.45;0.40;;;27.00;99.90;;;;;;5069759;28;20070;-54
2023/08/03 09:27:54;;;;;;;7.07;0.85;;;26.90;99.90;;;;;;5068624;28;20028;-53
2023/08/03 09:30:20;;;;;;;1.85;0.80;;;26.80;99.90;;;;;;5069965;28;20039;-54
2023/08/03 09:32:47;;;;;;;2.08;0.77;;;26.40;99.90;;;;;;5069500;28;20024;-53
2023/08/03 09:35:20;;;;;;;3.67;1.15;;;25.80;99.90;;;;;;5069553;28;20059;-49
2023/08/03 09:37:47;;;;;;;3.00;0.88;;;25.20;99.90;;;;;;5070021;28;20025;-49
2023/08/03 09:40:13;;;;;;;1.55;0.60;;;24.70;99.90;;;;;;5071099;28;20090;-50
2023/08/03 09:42:40;;;;;;;3.53;0.70;;;24.10;99.90;;;;;;5073760;28;20103;-50
2023/08/03 09:45:08;;;;;;;0.95;0.60;;;23.70;99.90;;;;;;5073738;28;20032;-51
2023/08/03 09:47:36;;;;;;;4.15;0.93;;;23.70;99.90;;;;;;5073494;28;20048;-49
2023/08/03 09:50:03;;;;;;;3.58;0.65;;;24.00;99.90;;;;;;5073548;28;20583;-48
2023/08/03 09:52:30;;;;;;;1.55;0.90;;;24.30;99.90;;;;;;5073477;28;20024;-49
2023/08/03 09:55:05;;;;;;;2.03;0.80;;;24.80;99.90;;;;;;5077318;28;20017;-49
2023/08/03 09:57:54;;;;;;;2.67;0.90;;;25.40;99.90;;;;;;5072669;28;20025;-48
2023/08/03 10:00:20;;;;;;;1.98;0.80;;;25.40;99.90;;;;;;5061795;28;20393;-53
2023/08/03 10:03:12;;;;;;;1.73;0.57;;;25.20;99.90;;;;;;5064139;28;20028;-50
2023/08/03 10:05:55;;;;;;;2.38;0.80;;;25.00;99.90;;;;;;5068654;28;20073;-49
2023/08/03 10:08:48;;;;;;;2.55;1.08;;;24.80;99.90;;;;;;5069948;28;20457;-52
2023/08/03 10:11:14;;;;;;;2.13;0.80;;;24.10;99.90;;;;;;5072571;28;20086;-49
2023/08/03 10:13:45;;;;;;;1.92;0.98;;;24.10;99.90;;;;;;5073019;28;20024;-49
2023/08/03 10:16:11;;;;;;;1.15;0.77;;;24.10;99.90;;;;;;5072839;28;20412;-51
2023/08/03 10:18:37;;;;;;;2.70;0.73;;;24.30;99.90;;;;;;5072390;28;20100;-49
2023/08/03 10:21:03;;;;;;;0.65;0.60;;;24.60;99.90;;;;;;5072792;28;20032;-52
2023/08/03 10:23:29;;;;;;;1.10;0.80;;;25.40;99.90;;;;;;5071647;28;20158;-50
2023/08/03 10:26:00;;;;;;;2.38;0.90;;;25.90;99.90;;;;;;5069714;28;20108;-49
2023/08/03 10:28:25;;;;;;;2.65;1.00;;;26.90;99.90;;;;;;5074338;28;20422;-54
2023/08/03 10:31:19;;;;;;;1.17;0.60;;;27.50;99.90;;;;;;5074612;28;20043;-55
2023/08/03 10:33:49;;;;;;;2.35;0.90;;;28.30;99.90;;;;;;5074216;28;20439;-49
2023/08/03 10:39:02;;;;;;;2.63;0.60;;;28.70;98.60;;;;;;5060580;28;20056;-52
2023/08/03 10:41:39;;;;;;;0.93;0.60;;;28.70;96.90;;;;;;5067418;28;20025;-52
2023/08/03 10:44:09;;;;;;;0.95;0.60;;;29.00;97.70;;;;;;5060749;28;20130;-53
2023/08/03 10:46:42;;;;;;;1.15;0.60;;;29.10;96.60;;;;;;5073033;28;20082;-55
2023/08/03 10:49:20;;;;;;;1.08;0.60;;;29.00;94.80;;;;;;5061486;28;20036;-54
2023/08/03 10:51:46;;;;;;;1.60;0.60;;;29.20;96.50;;;;;;5087068;28;20476;-49
2023/08/03 10:54:12;;;;;;;2.05;0.75;;;29.20;96.00;;;;;;5075232;28;20124;-50
2023/08/03 10:56:38;;;;;;;0.93;0.70;;;29.20;94.50;;;;;;5074972;28;20032;-51
2023/08/03 10:59:04;;;;;;;0.98;0.70;;;28.80;95.60;;;;;;5072535;28;20025;-53
2023/08/03 11:01:30;;;;;;;1.38;0.70;;;28.10;95.40;;;;;;5071243;28;20017;-48
2023/08/03 11:03:56;;;;;;;4.18;0.82;;;27.30;96.20;;;;;;5071626;28;20013;-49
2023/08/03 11:06:24;;;;;;;1.73;0.77;;;26.50;96.60;;;;;;5069403;28;20039;-51
2023/08/03 11:08:50;;;;;;;1.30;0.55;;;26.10;98.50;;;;;;5069747;28;20028;-49
2023/08/03 11:11:21;;;;;;;3.72;1.10;;;26.20;96.80;;;;;;5070707;28;20050;-49
2023/08/03 11:13:48;;;;;;;2.25;0.80;;;26.60;97.50;;;;;;5070432;28;20024;-48
2023/08/03 11:16:23;;;;;;;0.82;0.70;;;26.50;97.30;;;;;;5068330;28;20493;-47
2023/08/03 11:18:49;;;;;;;1.35;0.77;;;26.30;95.70;;;;;;5064178;28;20368;-49
2023/08/03 11:21:15;;;;;;;2.00;0.85;;;25.80;97.00;;;;;;5071518;28;20028;-53
2023/08/03 11:23:41;;;;;;;2.35;0.90;;;25.60;98.10;;;;;;5071785;28;20431;-48
2023/08/03 11:26:10;;;;;;;2.15;0.70;;;25.50;99.80;;;;;;5071157;28;20036;-48
2023/08/03 11:28:43;;;;;;;2.65;0.70;;;25.10;98.40;;;;;;5071003;28;20064;-48
2023/08/03 11:31:19;;;;;;;1.42;0.70;;;24.80;99.40;;;;;;5068911;28;20489;-48
2023/08/03 11:33:52;;;;;;;1.30;0.70;;;24.10;99.90;;;;;;5067304;28;20040;-47
2023/08/03 11:36:19;;;;;;;4.10;1.02;;;24.00;99.90;;;;;;5069380;28;20056;-47
2023/08/03 11:38:45;;;;;;;1.40;0.80;;;24.10;99.00;;;;;;5069375;28;20049;-49
2023/08/03 11:41:12;;;;;;;3.85;1.15;;;24.10;99.90;;;;;;5069669;28;20056;-48
2023/08/03 11:43:38;;;;;;;2.50;0.80;;;23.90;99.10;;;;;;5069858;28;20060;-49
2023/08/03 11:46:04;;;;;;;2.05;0.90;;;23.70;99.90;;;;;;5071260;28;20056;-48
2023/08/03 11:48:30;;;;;;;2.42;0.90;;;23.70;98.90;;;;;;5071125;28;20116;-48
2023/08/03 11:50:57;;;;;;;3.53;0.85;;;23.50;99.90;;;;;;5071647;28;20082;-48
2023/08/03 11:53:24;;;;;;;3.22;0.90;;;23.70;99.90;;;;;;5071240;28;20048;-49
2023/08/03 11:55:50;;;;;;;1.73;0.60;;;24.30;99.70;;;;;;5071077;28;20046;-48
2023/08/03 11:58:16;;;;;;;3.35;0.95;;;24.60;98.70;;;;;;5071187;28;20024;-48
2023/08/03 12:00:43;;;;;;;1.58;0.80;;;24.60;97.70;;;;;;5070855;28;20470;-54
2023/08/03 12:03:09;;;;;;;3.97;1.42;;;24.20;97.50;;;;;;5071096;28;20028;-50
2023/08/03 12:05:55;;;;;;;1.00;0.80;;;24.00;98.00;;;;;;5070832;28;20033;-49
2023/08/03 12:08:21;;;;;;;1.98;0.80;;;23.80;99.90;;;;;;5070523;28;20067;-49
2023/08/03 12:11:01;;;;;;;2.22;1.20;;;23.40;99.90;;;;;;5070859;28;20052;-52
2023/08/03 12:13:28;;;;;;;2.13;1.10;;;23.40;99.90;;;;;;5070838;28;20088;-53
2023/08/03 12:15:53;;;;;;;1.50;0.93;;;23.20;99.90;;;;;;5070689;28;20044;-51
2023/08/03 12:18:21;;;;;;;1.95;1.30;;;23.10;99.90;;;;;;5071020;28;20070;-52
2023/08/03 12:20:49;;;;;;;1.38;1.05;;;23.00;99.90;;;;;;5070676;28;20021;-52
2023/08/03 12:23:18;;;;;;;2.45;1.00;;;22.90;99.90;;;;;;5070614;28;20489;-50
2023/08/03 12:25:44;;;;;;;1.63;0.82;;;22.70;99.90;;;;;;5070588;28;20025;-51
2023/08/03 12:28:10;;;;;;;2.95;1.00;;;22.30;99.90;;;;;;5070306;28;20078;-53
2023/08/03 12:30:36;;;;;;;0.70;0.57;;;22.10;99.90;;;;;;5070455;28;20494;-53
2023/08/03 12:33:02;;;;;;;1.20;0.70;;;21.90;99.90;;;;;;5070350;28;20028;-51
2023/08/03 12:35:27;;;;;;;1.83;0.80;;;21.80;99.90;;;;;;5070332;28;20466;-53
2023/08/03 12:37:53;;;;;;;2.03;0.95;;;21.70;99.90;;;;;;5070530;28;20024;-49
2023/08/03 12:40:19;;;;;;;1.10;0.80;;;21.60;99.90;;;;;;5070462;28;20028;-54
2023/08/03 12:42:44;;;;;;;1.35;0.60;;;21.60;99.90;;;;;;5070647;28;20323;-51
2023/08/03 12:45:10;;;;;;;1.63;0.80;;;21.60;99.90;;;;;;5070357;28;20029;-53
2023/08/03 12:47:37;;;;;;;2.35;0.90;;;21.70;99.90;;;;;;5070515;28;20028;-54
2023/08/03 12:50:04;;;;;;;1.90;0.90;;;21.80;99.90;;;;;;5070348;28;20028;-52